createdAt,value
2016-10-25T06:11:35.502Z,100759
2016-10-25T06:13:32.829Z,100774
2016-10-25T06:15:32.538Z,100782
2016-10-25T06:17:31.484Z,100788
2016-10-25T06:19:31.650Z,100790
2016-10-25T06:20:14.273Z,100789
2016-10-25T06:22:15.263Z,100783
2016-10-25T06:24:13.790Z,100775
2016-10-25T06:26:14.377Z,100771
2016-10-25T06:28:12.672Z,100776
2016-10-25T06:30:11.265Z,100783
2016-10-25T06:32:11.046Z,100791
2016-10-25T06:34:10.605Z,100804
2016-10-25T06:36:09.530Z,100803
2016-10-25T06:38:07.897Z,100804
2016-10-25T06:40:08.599Z,100797
2016-10-25T06:42:07.634Z,100806
2016-10-25T06:44:07.793Z,100809
2016-10-25T06:46:09.717Z,100812
2016-10-25T06:48:04.871Z,100809
2016-10-25T06:50:04.956Z,100819
2016-10-25T06:52:03.803Z,100828
2016-10-25T06:54:03.414Z,100823
2016-10-25T06:56:05.078Z,100825
2016-10-25T06:58:01.722Z,100825
2016-10-25T07:00:03.744Z,100828
2016-10-25T07:02:02.092Z,100832
2016-10-25T07:04:01.079Z,100835
2016-10-25T07:05:59.559Z,100839
2016-10-25T07:07:58.601Z,100838
2016-10-25T07:09:58.266Z,100841
2016-10-25T07:11:58.393Z,100845
2016-10-25T07:13:58.154Z,100847
2016-10-25T07:15:57.830Z,100845
2016-10-25T07:17:57.986Z,100850
2016-10-25T07:20:00.037Z,100852
2016-10-25T07:21:54.922Z,100856
2016-10-25T07:23:55.602Z,100863
2016-10-25T07:25:55.214Z,100865
2016-10-25T07:27:53.891Z,100870
2016-10-25T07:29:57.503Z,100875
2016-10-25T07:31:55.775Z,100876
2016-10-25T07:33:54.088Z,100880
2016-10-25T07:35:55.466Z,100877
2016-10-25T07:37:51.938Z,100873
2016-10-25T07:39:50.419Z,100878
2016-10-25T07:41:50.029Z,100887
2016-10-25T07:43:47.613Z,100891
2016-10-25T07:45:47.234Z,100894
2016-10-25T07:47:47.668Z,100891
2016-10-25T07:49:48.433Z,100891
2016-10-25T07:51:47.186Z,100890
2016-10-25T07:53:48.252Z,100898
2016-10-25T07:55:47.292Z,100895
2016-10-25T07:57:45.547Z,100901
2016-10-25T07:59:44.330Z,100905
2016-10-25T08:01:43.456Z,100911
2016-10-25T08:03:43.191Z,100921
2016-10-25T08:05:47.064Z,100924
2016-10-25T08:07:40.733Z,100923
2016-10-25T08:09:41.250Z,100925
2016-10-25T08:11:40.265Z,100930
2016-10-25T08:13:40.203Z,100930
2016-10-25T08:15:40.119Z,100930
2016-10-25T08:17:39.207Z,100932
2016-10-25T08:19:37.703Z,100924
2016-10-25T08:21:38.700Z,100928
2016-10-25T08:23:35.924Z,100924
2016-10-25T08:25:33.846Z,100932
2016-10-25T08:27:32.254Z,100930
2016-10-25T08:29:33.315Z,100932
2016-10-25T08:31:32.076Z,100924
2016-10-25T08:33:31.420Z,100921
2016-10-25T08:35:31.996Z,100933
2016-10-25T08:37:30.080Z,100940
2016-10-25T08:39:29.846Z,100940
2016-10-25T08:41:28.374Z,100940
2016-10-25T08:43:27.349Z,100936
2016-10-25T08:45:26.899Z,100938
2016-10-25T08:47:25.536Z,100933
2016-10-25T08:49:27.218Z,100939
2016-10-25T08:51:23.553Z,100933
2016-10-25T08:53:24.593Z,100937
2016-10-25T08:55:23.445Z,100943
2016-10-25T08:57:24.768Z,100942
2016-10-25T08:59:23.346Z,100942
2016-10-25T09:01:21.776Z,100946
2016-10-25T09:03:19.795Z,100946
2016-10-25T09:05:22.659Z,100952
2016-10-25T09:07:19.915Z,100950
2016-10-25T09:09:18.797Z,100954
2016-10-25T09:11:18.621Z,100957
2016-10-25T09:13:19.461Z,100958
2016-10-25T09:15:19.270Z,100957
2016-10-25T09:17:16.479Z,100958
2016-10-25T09:19:19.210Z,100958
2016-10-25T09:21:16.655Z,100957
2016-10-25T09:23:16.752Z,100964
2016-10-25T09:25:15.312Z,100964
2016-10-25T09:27:17.825Z,100975
2016-10-25T09:29:14.280Z,100982
2016-10-25T09:31:12.745Z,100984
2016-10-25T09:33:12.051Z,100983
2016-10-25T09:35:11.992Z,100983
2016-10-25T09:37:09.412Z,100988
2016-10-25T09:39:11.896Z,100985
2016-10-25T09:41:08.825Z,100988
2016-10-25T09:43:08.152Z,100998
2016-10-25T09:45:08.213Z,101009
2016-10-25T09:47:08.435Z,101013
2016-10-25T09:49:08.692Z,101011
2016-10-25T09:51:09.578Z,101020
2016-10-25T09:53:09.574Z,101019
2016-10-25T09:55:07.281Z,101031
2016-10-25T09:57:07.720Z,101032
2016-10-25T09:59:11.408Z,101039
2016-10-25T10:01:07.820Z,101037
2016-10-25T10:03:10.034Z,101036
2016-10-25T10:05:09.820Z,101043
2016-10-25T10:07:07.678Z,101042
2016-10-25T10:09:08.925Z,101045
2016-10-25T10:11:05.039Z,101048
2016-10-25T10:13:03.472Z,101053
2016-10-25T10:15:06.322Z,101052
2016-10-25T10:17:03.375Z,101060
2016-10-25T10:19:00.167Z,101061
2016-10-25T10:21:01.953Z,101070
2016-10-25T10:23:03.393Z,101068
2016-10-25T10:24:59.886Z,101075
2016-10-25T10:26:57.616Z,101077
2016-10-25T10:28:57.469Z,101079
2016-10-25T10:30:56.526Z,101088
2016-10-25T10:32:56.170Z,101091
2016-10-25T10:34:56.129Z,101090
2016-10-25T10:36:54.336Z,101089
2016-10-25T10:38:57.982Z,101088
2016-10-25T10:40:57.539Z,101091
2016-10-25T10:42:55.970Z,101094
2016-10-25T10:44:55.609Z,101088
2016-10-25T10:46:53.675Z,101084
2016-10-25T10:48:53.495Z,101080
2016-10-25T10:50:55.440Z,101080
2016-10-25T10:52:52.571Z,101078
2016-10-25T10:54:50.459Z,101077
2016-10-25T10:56:50.704Z,101079
2016-10-25T10:58:52.413Z,101085
2016-10-25T11:00:49.346Z,101090
2016-10-25T11:02:46.580Z,101092
2016-10-25T11:04:46.045Z,101088
2016-10-25T11:06:45.086Z,101091
2016-10-25T11:08:46.458Z,101094
2016-10-25T11:10:51.535Z,101087
2016-10-25T11:12:50.043Z,101086
2016-10-25T11:14:46.929Z,101091
2016-10-25T11:16:47.061Z,101098
2016-10-25T11:18:51.138Z,101097
2016-10-25T11:20:52.168Z,101098
2016-10-25T11:22:53.101Z,101097
2016-10-25T11:24:51.992Z,101094
2016-10-25T11:26:53.160Z,101101
2016-10-25T11:28:53.504Z,101100
2016-10-25T11:30:53.877Z,101099
2016-10-25T11:32:55.915Z,101100
2016-10-25T11:34:59.197Z,101101
2016-10-25T11:36:59.651Z,101101
2016-10-25T11:39:00.389Z,101096
2016-10-25T11:41:00.600Z,101098
2016-10-25T11:43:00.959Z,101099
2016-10-25T11:45:00.212Z,101098
2016-10-25T11:47:01.515Z,101092
2016-10-25T11:49:03.212Z,101092
2016-10-25T11:51:02.791Z,101096
2016-10-25T11:53:03.251Z,101101
2016-10-25T11:55:04.096Z,101105
2016-10-25T11:57:04.919Z,101103
2016-10-25T11:59:06.965Z,101106
2016-10-25T12:01:04.844Z,101108
2016-10-25T12:03:04.482Z,101106
2016-10-25T12:05:04.027Z,101105
2016-10-25T12:07:04.929Z,101113
2016-10-25T12:09:08.309Z,101123
2016-10-25T12:11:04.285Z,101130
2016-10-25T12:13:07.190Z,101129
2016-10-25T12:15:08.314Z,101128
2016-10-25T12:17:12.167Z,101118
2016-10-25T12:19:12.276Z,101112
2016-10-25T12:21:13.954Z,101107
2016-10-25T12:23:18.080Z,101108
2016-10-25T12:25:19.674Z,101109
2016-10-25T12:27:18.321Z,101107
2016-10-25T12:29:22.884Z,101119
2016-10-25T12:31:31.012Z,101121
2016-10-25T12:33:37.253Z,101121
2016-10-25T12:35:34.861Z,101116
2016-10-25T12:37:37.809Z,101117
2016-10-25T12:39:29.854Z,101120
2016-10-25T12:41:33.178Z,101122
2016-10-25T12:43:31.974Z,101122
2016-10-25T12:45:32.093Z,101117
2016-10-25T12:47:35.194Z,101116
2016-10-25T12:49:35.381Z,101116
2016-10-25T12:51:46.970Z,101121
2016-10-25T12:53:46.948Z,101123
2016-10-25T12:55:43.672Z,101124
2016-10-25T12:57:41.735Z,101131
2016-10-25T12:59:42.441Z,101131
2016-10-25T13:01:43.528Z,101128
2016-10-25T13:03:46.397Z,101128
2016-10-25T13:05:45.645Z,101129
2016-10-25T13:07:43.289Z,101125
2016-10-25T13:09:44.118Z,101133
2016-10-25T13:11:46.150Z,101137
2016-10-25T13:13:48.339Z,101150
2016-10-25T13:15:49.353Z,101148
2016-10-25T13:17:52.595Z,101150
2016-10-25T13:19:50.863Z,101146
2016-10-25T13:21:51.452Z,101146
2016-10-25T13:23:56.047Z,101143
2016-10-25T13:25:57.312Z,101137
2016-10-25T13:27:55.960Z,101135
2016-10-25T13:29:57.756Z,101140
2016-10-25T13:31:59.413Z,101150
2016-10-25T13:34:01.592Z,101157
2016-10-25T13:35:59.616Z,101162
2016-10-25T13:38:00.616Z,101163
2016-10-25T13:40:01.919Z,101163
2016-10-25T13:42:00.393Z,101157
2016-10-25T13:44:00.878Z,101153
2016-10-25T13:46:02.725Z,101159
2016-10-25T13:48:02.793Z,101164
2016-10-25T13:50:04.267Z,101169
2016-10-25T13:52:04.245Z,101171
2016-10-25T13:54:07.692Z,101178
2016-10-25T13:56:07.463Z,101181
2016-10-25T13:58:07.410Z,101180
2016-10-25T14:00:09.650Z,101189
2016-10-25T14:02:12.384Z,101188
2016-10-25T17:30:07.189Z,101699
2016-10-25T17:32:06.249Z,101702
2016-10-25T17:34:04.713Z,101705
2016-10-25T17:36:02.412Z,101709
2016-10-25T17:38:00.024Z,101712
2016-10-25T17:39:58.608Z,101716
2016-10-25T17:51:04.569Z,101740
2016-10-25T17:53:03.440Z,101735
2016-10-25T17:55:02.404Z,101730
2016-10-25T17:57:01.743Z,101740
2016-10-25T17:59:01.581Z,101744
2016-10-25T18:01:00.349Z,101745
2016-10-25T18:03:02.447Z,101750
2016-10-25T18:04:58.873Z,101753
2016-10-25T18:06:59.480Z,101760
2016-10-25T18:08:57.376Z,101759
2016-10-25T18:10:54.335Z,101764
2016-10-25T18:12:52.133Z,101761
2016-10-25T18:14:55.017Z,101761
2016-10-25T18:16:50.099Z,101762
2016-10-25T18:18:52.628Z,101760
2016-10-25T18:20:48.848Z,101768
2016-10-25T18:22:53.149Z,101768
2016-10-25T18:24:52.062Z,101771
2016-10-25T18:26:51.606Z,101770
2016-10-25T18:28:45.961Z,101774
2016-10-25T18:30:45.083Z,101772
2016-10-25T18:32:44.603Z,101776
2016-10-25T18:34:43.664Z,101776
2016-10-25T18:36:50.361Z,101775
2016-10-25T18:38:42.429Z,101776
2016-10-25T18:40:41.753Z,101778
2016-10-25T18:42:40.798Z,101779
2016-10-25T18:44:50.355Z,101785
2016-10-25T18:46:39.739Z,101790
2016-10-25T18:48:49.161Z,101796
2016-10-25T18:50:48.409Z,101799
2016-10-25T18:52:46.190Z,101802
2016-10-25T18:54:42.697Z,101798
2016-10-25T18:56:45.339Z,101803
2016-10-25T18:58:36.565Z,101799
2016-10-25T19:00:50.147Z,101802
2016-10-25T19:02:39.873Z,101807
2016-10-25T19:04:37.338Z,101807
2016-10-25T19:06:36.026Z,101803
2016-10-25T19:08:43.624Z,101805
2016-10-25T19:10:46.338Z,101807
2016-10-25T19:12:43.358Z,101806
2016-10-25T19:14:36.161Z,101806
2016-10-25T19:16:46.595Z,101808
2016-10-25T19:18:34.766Z,101809
2016-10-25T19:20:50.312Z,101811
2016-10-25T19:22:33.462Z,101815
2016-10-25T19:24:37.418Z,101821
2016-10-25T19:26:49.469Z,101823
2016-10-25T19:28:46.091Z,101826
2016-10-25T19:30:31.793Z,101824
2016-10-25T19:32:46.834Z,101827
2016-10-25T19:34:49.566Z,101830
2016-10-25T19:36:47.902Z,101825
2016-10-25T19:38:31.015Z,101828
2016-10-25T19:40:30.008Z,101824
2016-10-25T19:42:29.310Z,101830
2016-10-25T19:44:47.045Z,101829
2016-10-25T19:46:47.119Z,101831
2016-10-25T19:48:29.115Z,101837
2016-10-25T19:50:27.558Z,101833
2016-10-25T19:52:26.840Z,101833
2016-10-25T19:54:26.014Z,101833
2016-10-25T19:56:25.197Z,101828
2016-10-25T19:58:24.591Z,101822
2016-10-25T20:00:25.809Z,101819
2016-10-25T20:02:24.869Z,101820
2016-10-25T20:04:22.378Z,101817
2016-10-25T20:06:22.452Z,101818
2016-10-25T20:08:22.800Z,101815
2016-10-25T20:10:20.827Z,101813
2016-10-25T20:12:31.487Z,101818
2016-10-25T20:14:19.386Z,101819
2016-10-25T20:16:32.104Z,101829
2016-10-25T20:18:19.887Z,101828
2016-10-25T20:20:28.538Z,101829
2016-10-25T20:22:30.938Z,101829
2016-10-25T20:24:34.668Z,101827
2016-10-25T20:26:28.587Z,101826
2016-10-25T20:28:21.463Z,101828
2016-10-25T20:30:25.965Z,101828
2016-10-25T20:32:14.477Z,101827
2016-10-25T20:34:17.905Z,101836
2016-10-25T20:36:17.288Z,101843
2016-10-25T20:38:16.575Z,101846
2016-10-25T20:40:22.731Z,101839
2016-10-25T20:42:20.517Z,101845
2016-10-25T20:46:17.652Z,101842
2016-10-25T20:49:00.503Z,101841
2016-10-25T20:51:07.601Z,101838
2016-10-25T20:59:31.036Z,101842
